createdAt,value
2022-10-02T00:01:12.757Z,101030.94
2022-10-02T00:06:22.409Z,101027.41
2022-10-02T00:11:27.502Z,101034.06
2022-10-02T00:16:48.412Z,101045.81
2022-10-02T00:21:59.251Z,101058.38
2022-10-02T00:27:04.939Z,101070.56
2022-10-02T00:32:27.201Z,101081.63
2022-10-02T00:37:41.117Z,101076.66
2022-10-02T00:43:05.801Z,101067.88
2022-10-02T00:48:19.748Z,101062.56
2022-10-02T00:53:41.849Z,101064.31
2022-10-02T00:59:11.896Z,101071.03
2022-10-02T01:04:18.393Z,101073.00
2022-10-02T01:09:22.834Z,101074.66
2022-10-02T01:14:41.750Z,101093.59
2022-10-02T01:19:45.928Z,101096.81
2022-10-02T01:24:54.677Z,101089.50
2022-10-02T01:30:07.510Z,101083.66
2022-10-02T01:35:12.435Z,101090.22
2022-10-02T01:40:26.237Z,101096.56
2022-10-02T01:45:53.852Z,101098.25
2022-10-02T01:51:04.371Z,101104.59
2022-10-02T01:56:16.367Z,101112.84
2022-10-02T02:01:25.313Z,101123.53
2022-10-02T02:06:35.200Z,101122.06
2022-10-02T02:11:41.473Z,101123.41
2022-10-02T02:16:51.764Z,101116.59
2022-10-02T02:22:10.067Z,101123.75
2022-10-02T02:27:18.066Z,101115.72
2022-10-02T02:32:23.709Z,101115.38
2022-10-02T02:37:26.718Z,101107.66
2022-10-02T02:42:32.502Z,101114.31
2022-10-02T02:47:44.392Z,101112.28
2022-10-02T02:52:55.604Z,101106.94
2022-10-02T02:58:07.227Z,101114.16
2022-10-02T03:03:11.472Z,101116.63
2022-10-02T03:08:36.534Z,101113.13
2022-10-02T03:13:49.510Z,101110.44
2022-10-02T03:19:01.388Z,101108.78
2022-10-02T03:24:05.683Z,101116.81
2022-10-02T03:29:18.977Z,101123.34
2022-10-02T03:34:20.991Z,101114.47
2022-10-02T03:39:31.058Z,101126.38
2022-10-02T03:44:38.840Z,101123.88
2022-10-02T03:49:46.424Z,101129.44
2022-10-02T03:54:53.666Z,101136.16
2022-10-02T04:00:08.775Z,101135.31
2022-10-02T04:05:35.685Z,101135.13
2022-10-02T04:10:46.764Z,101136.59
2022-10-02T04:16:07.283Z,101139.59
2022-10-02T04:21:17.908Z,101187.44
2022-10-02T04:26:27.479Z,101214.03
2022-10-02T04:31:31.609Z,101210.69
2022-10-02T04:37:03.845Z,101206.00
2022-10-02T04:42:27.273Z,101189.94
2022-10-02T04:47:59.471Z,101166.38
2022-10-02T04:53:14.809Z,101156.00
2022-10-02T04:58:46.653Z,101166.72
2022-10-02T05:04:22.567Z,101182.59
2022-10-02T05:09:40.164Z,101188.91
2022-10-02T05:15:23.267Z,101181.75
2022-10-02T05:20:32.868Z,101189.78
2022-10-02T05:25:37.537Z,101191.44
2022-10-02T05:30:49.518Z,101193.13
2022-10-02T05:36:12.204Z,101195.13
2022-10-02T05:41:21.976Z,101189.28
2022-10-02T05:46:34.635Z,101182.59
2022-10-02T05:52:16.892Z,101195.50
2022-10-02T05:57:32.978Z,101196.69
2022-10-02T06:02:46.145Z,101216.09
2022-10-02T06:07:53.189Z,101233.78
2022-10-02T06:13:11.408Z,101248.97
2022-10-02T06:18:19.737Z,101254.50
2022-10-02T06:23:28.153Z,101251.16
2022-10-02T06:28:46.738Z,101245.34
2022-10-02T06:33:48.394Z,101253.31
2022-10-02T06:38:59.083Z,101273.69
2022-10-02T06:44:19.168Z,101259.91
2022-10-02T06:49:40.948Z,101275.41
2022-10-02T06:55:40.834Z,101278.44
2022-10-02T07:00:54.052Z,101284.25
2022-10-02T07:06:01.368Z,101292.75
2022-10-02T07:11:21.968Z,101295.38
2022-10-02T07:16:38.663Z,101289.59
2022-10-02T07:21:43.434Z,101301.78
2022-10-02T07:26:49.845Z,101305.22
2022-10-02T07:32:10.967Z,101310.94
2022-10-02T07:37:22.181Z,101312.47
2022-10-02T07:42:32.148Z,101329.66
2022-10-02T07:47:48.964Z,101337.47
2022-10-02T07:53:12.297Z,101361.44
2022-10-02T07:58:18.887Z,101383.28
2022-10-02T08:03:26.039Z,101376.53
2022-10-02T08:08:38.745Z,101381.31
2022-10-02T08:13:52.804Z,101376.06
2022-10-02T08:19:37.156Z,101380.59
2022-10-02T08:25:04.433Z,101381.16
2022-10-02T08:30:11.717Z,101395.56
2022-10-02T08:35:19.139Z,101398.09
2022-10-02T08:40:23.112Z,101403.41
2022-10-02T08:46:02.560Z,101409.97
2022-10-02T08:51:11.438Z,101417.56
2022-10-02T08:56:30.822Z,101421.84
2022-10-02T09:01:43.613Z,101441.47
2022-10-02T09:07:10.308Z,101437.00
2022-10-02T09:13:14.639Z,101441.47
2022-10-02T09:18:31.989Z,101443.50
2022-10-02T09:24:11.329Z,101444.06
2022-10-02T09:29:34.613Z,101447.91
2022-10-02T09:35:02.155Z,101438.19
2022-10-02T09:40:32.572Z,101439.13
2022-10-02T09:45:56.249Z,101442.34
2022-10-02T09:51:36.916Z,101445.38
2022-10-02T09:57:11.613Z,101454.97
2022-10-02T10:02:47.967Z,101454.31
2022-10-02T10:08:11.870Z,101452.00
2022-10-02T10:13:20.414Z,101459.66
2022-10-02T10:19:02.419Z,101465.47
2022-10-02T10:24:34.848Z,101460.53
2022-10-02T10:29:53.631Z,101486.28
2022-10-02T10:34:55.255Z,101490.84
2022-10-02T10:40:23.984Z,101483.69
2022-10-02T10:46:02.543Z,101487.69
2022-10-02T10:51:30.669Z,101490.84
2022-10-02T10:56:38.518Z,101494.78
2022-10-02T11:02:18.011Z,101496.25
2022-10-02T11:07:47.767Z,101503.72
2022-10-02T11:13:12.550Z,101515.78
2022-10-02T11:18:31.499Z,101512.03
2022-10-02T11:23:54.167Z,101522.44
2022-10-02T11:29:34.707Z,101530.06
2022-10-02T11:34:55.472Z,101541.00
2022-10-02T11:40:21.545Z,101539.47
2022-10-02T11:46:21.597Z,101538.25
2022-10-02T11:51:39.366Z,101538.31
2022-10-02T11:57:07.455Z,101544.69
2022-10-02T12:02:36.211Z,101545.38
2022-10-02T12:07:56.423Z,101569.09
2022-10-02T12:13:16.384Z,101568.56
2022-10-02T12:18:39.723Z,101574.41
2022-10-02T12:24:25.692Z,101570.94
2022-10-02T12:29:41.902Z,101574.84
2022-10-02T12:34:56.330Z,101593.47
2022-10-02T12:40:35.139Z,101597.66
2022-10-02T12:46:07.965Z,101594.09
2022-10-02T12:51:35.409Z,101609.03
2022-10-02T12:56:55.597Z,101623.66
2022-10-02T13:02:59.978Z,101618.31
2022-10-02T13:08:19.952Z,101640.91
2022-10-02T13:13:59.417Z,101634.69
2022-10-02T13:19:30.480Z,101634.09
2022-10-02T13:24:43.580Z,101638.72
2022-10-02T13:30:23.027Z,101643.00
2022-10-02T13:35:30.733Z,101633.63
2022-10-02T13:40:44.887Z,101645.34
2022-10-02T13:46:13.430Z,101642.72
2022-10-02T13:51:34.344Z,101655.44
2022-10-02T13:56:48.715Z,101670.13
2022-10-02T14:02:16.727Z,101669.16
2022-10-02T14:07:25.703Z,101676.41
2022-10-02T14:12:39.969Z,101682.81
2022-10-02T14:17:53.753Z,101690.69
2022-10-02T14:23:15.274Z,101685.31
2022-10-02T14:28:37.730Z,101690.25
2022-10-02T14:34:03.510Z,101697.00
2022-10-02T14:39:27.952Z,101710.31
2022-10-02T14:44:44.626Z,101710.75
2022-10-02T14:50:03.858Z,101710.72
2022-10-02T14:56:01.372Z,101719.63
2022-10-02T15:01:21.495Z,101713.69
2022-10-02T15:06:51.727Z,101724.44
2022-10-02T15:12:10.097Z,101726.72
2022-10-02T15:17:51.126Z,101727.47
2022-10-02T15:23:03.221Z,101742.31
2022-10-02T15:28:36.228Z,101741.06
2022-10-02T15:34:14.091Z,101746.91
2022-10-02T15:39:41.910Z,101764.25
2022-10-02T15:44:52.515Z,101770.72
2022-10-02T15:50:20.871Z,101783.63
2022-10-02T15:55:38.729Z,101791.91
2022-10-02T16:01:24.515Z,101793.97
2022-10-02T16:07:04.994Z,101801.59
2022-10-02T16:12:32.409Z,101804.41
2022-10-02T16:17:43.034Z,101810.56
2022-10-02T16:22:58.618Z,101813.97
2022-10-02T16:28:39.446Z,101821.81
2022-10-02T16:34:02.429Z,101831.47
2022-10-02T16:39:16.331Z,101841.31
2022-10-02T16:44:44.565Z,101848.19
2022-10-02T16:50:11.083Z,101854.47
2022-10-02T16:55:44.034Z,101862.81
2022-10-02T17:00:57.495Z,101877.19
2022-10-02T17:06:05.528Z,101878.13
2022-10-02T17:11:11.965Z,101890.88
2022-10-02T17:16:21.631Z,101899.63
2022-10-02T17:21:37.710Z,101900.75
2022-10-02T17:26:47.191Z,101909.09
2022-10-02T17:31:58.646Z,101913.59
2022-10-02T17:37:03.865Z,101921.84
2022-10-02T17:42:41.274Z,101931.34
2022-10-02T17:47:58.534Z,101946.22
2022-10-02T17:53:51.996Z,101953.16
2022-10-02T17:59:21.059Z,101961.22
2022-10-02T18:04:48.023Z,101973.78
2022-10-02T18:10:13.213Z,101975.44
2022-10-02T18:15:26.131Z,101986.63
2022-10-02T18:20:35.510Z,101987.72
2022-10-02T18:26:03.131Z,101995.03
2022-10-02T18:31:55.132Z,101999.41
2022-10-02T18:37:43.081Z,102006.91
2022-10-02T18:43:15.635Z,102007.78
2022-10-02T18:48:42.560Z,102015.88
2022-10-02T18:53:53.882Z,102023.16
2022-10-02T18:58:58.955Z,102014.94
2022-10-02T19:04:11.723Z,102027.25
2022-10-02T19:09:21.457Z,102015.50
2022-10-02T19:14:26.003Z,102026.44
2022-10-02T19:19:29.264Z,102029.16
2022-10-02T19:24:35.051Z,102035.03
2022-10-02T19:29:57.844Z,102041.06
2022-10-02T19:35:01.583Z,102051.31
2022-10-02T19:40:04.017Z,102053.84
2022-10-02T19:45:25.495Z,102048.47
2022-10-02T19:50:37.815Z,102049.00
2022-10-02T19:55:46.448Z,102074.88
2022-10-02T20:00:53.101Z,102075.19
2022-10-02T20:06:00.981Z,102079.06
2022-10-02T20:11:15.432Z,102080.94
2022-10-02T20:16:36.655Z,102094.22
2022-10-02T20:21:40.955Z,102095.03
2022-10-02T20:26:47.345Z,102101.44
2022-10-02T20:31:59.655Z,102111.00
2022-10-02T20:37:12.038Z,102109.84
2022-10-02T20:42:19.985Z,102113.03
2022-10-02T20:47:43.505Z,102121.59
2022-10-02T20:52:54.465Z,102125.25
2022-10-02T20:58:33.345Z,102128.09
2022-10-02T21:03:56.703Z,102129.06
2022-10-02T21:09:19.560Z,102134.25
2022-10-02T21:14:43.472Z,102132.44
2022-10-02T21:19:46.249Z,102139.28
2022-10-02T21:24:56.842Z,102143.84
2022-10-02T21:30:16.373Z,102151.50
2022-10-02T21:35:38.951Z,102155.56
2022-10-02T21:41:07.225Z,102162.94
2022-10-02T21:46:27.104Z,102175.00
2022-10-02T21:52:08.757Z,102180.34
2022-10-02T21:57:44.529Z,102189.72
2022-10-02T22:03:50.502Z,102195.41
2022-10-02T22:09:11.563Z,102195.59
2022-10-02T22:14:27.992Z,102201.59
2022-10-02T22:19:47.719Z,102205.72
2022-10-02T22:25:04.442Z,102210.03
2022-10-02T22:30:29.536Z,102215.19
2022-10-02T22:35:57.800Z,102217.66
2022-10-02T22:41:14.698Z,102220.00
2022-10-02T22:46:21.215Z,102231.63
2022-10-02T22:51:34.567Z,102236.78
2022-10-02T22:56:42.902Z,102245.78
2022-10-02T23:02:05.484Z,102248.22
2022-10-02T23:07:19.011Z,102243.47
2022-10-02T23:12:54.846Z,102253.22
2022-10-02T23:18:16.476Z,102256.06
2022-10-02T23:23:23.260Z,102251.91
2022-10-02T23:28:52.060Z,102263.03
2022-10-02T23:34:41.289Z,102258.50
2022-10-02T23:39:56.946Z,102264.94
2022-10-02T23:45:11.062Z,102264.00
2022-10-02T23:51:01.954Z,102266.63
2022-10-02T23:56:16.831Z,102275.34
